createdAt,value
2016-12-03T00:00:27.939Z,301
2016-12-03T00:01:28.058Z,301
2016-12-03T00:02:28.218Z,301
2016-12-03T00:03:28.350Z,301
2016-12-03T00:04:28.472Z,301
2016-12-03T00:05:28.590Z,301
2016-12-03T00:06:28.791Z,301
2016-12-03T00:07:28.934Z,301
2016-12-03T00:08:29.031Z,301
2016-12-03T00:09:29.166Z,301
2016-12-03T00:10:29.303Z,301
2016-12-03T00:11:29.421Z,301
2016-12-03T00:12:29.544Z,301
2016-12-03T00:13:29.696Z,301
2016-12-03T00:14:29.776Z,301
2016-12-03T00:15:29.870Z,301
2016-12-03T00:16:30.050Z,301
2016-12-03T00:17:30.162Z,301
2016-12-03T00:18:30.327Z,301
2016-12-03T00:19:30.376Z,300
2016-12-03T00:20:30.487Z,300
2016-12-03T00:21:30.624Z,301
2016-12-03T00:22:31.527Z,300
2016-12-03T00:23:31.707Z,300
2016-12-03T00:24:31.794Z,301
2016-12-03T00:25:31.913Z,301
2016-12-03T00:26:32.013Z,301
2016-12-03T00:27:32.148Z,301
2016-12-03T00:28:32.239Z,300
2016-12-03T00:29:32.339Z,300
2016-12-03T00:30:32.480Z,306
2016-12-03T00:31:32.636Z,306
2016-12-03T00:32:32.709Z,304
2016-12-03T00:33:32.769Z,304
2016-12-03T00:34:32.842Z,304
2016-12-03T00:35:32.966Z,304
2016-12-03T00:36:33.081Z,304
2016-12-03T00:37:33.211Z,304
2016-12-03T00:38:33.298Z,303
2016-12-03T00:39:33.385Z,304
2016-12-03T00:40:33.527Z,304
2016-12-03T00:41:33.623Z,304
2016-12-03T00:42:33.708Z,303
2016-12-03T00:43:33.810Z,303
2016-12-03T00:44:33.914Z,304
2016-12-03T00:45:34.003Z,304
2016-12-03T00:46:34.123Z,304
2016-12-03T00:47:34.244Z,306
2016-12-03T00:48:34.311Z,307
2016-12-03T00:49:34.419Z,307
2016-12-03T00:50:35.111Z,306
2016-12-03T00:51:35.211Z,306
2016-12-03T00:52:35.276Z,305
2016-12-03T00:53:35.388Z,304
2016-12-03T00:54:35.489Z,304
2016-12-03T00:55:35.588Z,305
2016-12-03T00:56:36.528Z,304
2016-12-03T00:57:35.724Z,304
2016-12-03T00:58:35.781Z,304
2016-12-03T00:59:35.848Z,304
2016-12-03T01:00:35.976Z,304
2016-12-03T01:01:36.108Z,303
2016-12-03T01:02:36.246Z,303
2016-12-03T01:03:36.372Z,303
2016-12-03T01:04:36.450Z,303
2016-12-03T01:05:36.582Z,304
2016-12-03T01:06:36.693Z,304
2016-12-03T01:07:36.800Z,304
2016-12-03T01:08:36.889Z,303
2016-12-03T01:09:36.989Z,304
2016-12-03T01:10:37.077Z,303
2016-12-03T01:11:37.152Z,303
2016-12-03T01:12:37.217Z,303
2016-12-03T01:13:37.270Z,303
2016-12-03T01:14:37.380Z,303
2016-12-03T01:15:37.591Z,303
2016-12-03T01:16:37.724Z,303
2016-12-03T01:17:37.811Z,303
2016-12-03T01:18:37.935Z,303
2016-12-03T01:19:38.057Z,303
2016-12-03T01:20:38.169Z,303
2016-12-03T01:21:38.342Z,303
2016-12-03T01:22:38.491Z,303
2016-12-03T01:23:38.560Z,302
2016-12-03T01:24:38.672Z,303
2016-12-03T01:25:38.755Z,303
2016-12-03T01:26:38.853Z,302
2016-12-03T01:27:38.926Z,303
2016-12-03T01:28:39.003Z,302
2016-12-03T01:29:39.085Z,303
2016-12-03T01:30:39.175Z,302
2016-12-03T01:31:39.296Z,302
2016-12-03T01:32:39.392Z,303
2016-12-03T01:33:39.669Z,302
2016-12-03T01:34:39.780Z,303
2016-12-03T01:35:39.905Z,302
2016-12-03T01:36:40.248Z,302
2016-12-03T01:37:40.407Z,302
2016-12-03T01:38:40.507Z,302
2016-12-03T01:39:40.605Z,302
2016-12-03T01:40:40.685Z,302
2016-12-03T01:41:40.807Z,303
2016-12-03T01:42:40.904Z,302
2016-12-03T01:43:40.995Z,303
2016-12-03T01:44:41.117Z,302
2016-12-03T01:45:41.256Z,302
2016-12-03T01:46:41.340Z,303
2016-12-03T01:47:41.522Z,303
2016-12-03T01:48:41.651Z,302
2016-12-03T01:49:41.775Z,303
2016-12-03T01:50:41.960Z,303
2016-12-03T01:51:42.045Z,303
2016-12-03T01:52:42.100Z,302
2016-12-03T01:53:42.282Z,303
2016-12-03T01:54:42.373Z,303
2016-12-03T01:55:42.449Z,303
2016-12-03T01:56:42.507Z,303
2016-12-03T01:57:42.648Z,303
2016-12-03T01:58:42.723Z,302
2016-12-03T01:59:42.846Z,302
2016-12-03T02:00:42.971Z,303
2016-12-03T02:01:43.035Z,303
2016-12-03T02:02:43.136Z,303
2016-12-03T02:03:43.229Z,303
2016-12-03T02:04:43.360Z,303
2016-12-03T02:05:43.478Z,302
2016-12-03T02:06:43.581Z,303
2016-12-03T02:07:43.665Z,303
2016-12-03T02:08:43.766Z,303
2016-12-03T02:09:43.839Z,303
2016-12-03T02:10:43.961Z,302
2016-12-03T02:11:44.011Z,302
2016-12-03T02:12:44.136Z,316
2016-12-03T02:13:44.203Z,326
2016-12-03T02:14:44.345Z,319
2016-12-03T02:15:44.447Z,311
2016-12-03T02:16:44.530Z,303
2016-12-03T02:17:44.638Z,301
2016-12-03T02:18:44.719Z,302
2016-12-03T02:19:44.851Z,298
2016-12-03T02:20:44.940Z,296
2016-12-03T02:21:45.045Z,295
2016-12-03T02:22:45.146Z,295
2016-12-03T02:23:45.262Z,295
2016-12-03T02:24:45.381Z,295
2016-12-03T02:25:45.492Z,295
2016-12-03T02:26:45.611Z,294
2016-12-03T02:27:45.706Z,294
2016-12-03T02:28:45.970Z,295
2016-12-03T02:29:46.114Z,295
2016-12-03T02:30:46.266Z,295
2016-12-03T02:31:46.387Z,294
2016-12-03T02:32:46.444Z,295
2016-12-03T02:33:46.535Z,294
2016-12-03T02:34:46.614Z,294
2016-12-03T02:35:46.723Z,295
2016-12-03T02:36:46.874Z,294
2016-12-03T02:37:47.001Z,294
2016-12-03T02:38:47.120Z,294
2016-12-03T02:39:47.199Z,295
2016-12-03T02:40:47.294Z,295
2016-12-03T02:41:47.428Z,295
2016-12-03T02:42:47.528Z,295
2016-12-03T02:43:50.095Z,294
2016-12-03T02:44:50.225Z,294
2016-12-03T02:45:50.350Z,294
2016-12-03T02:46:50.439Z,294
2016-12-03T02:47:50.577Z,294
2016-12-03T02:48:50.672Z,294
2016-12-03T02:49:50.757Z,294
2016-12-03T02:50:50.953Z,294
2016-12-03T02:51:51.059Z,294
2016-12-03T02:52:51.163Z,294
2016-12-03T02:53:51.261Z,294
2016-12-03T02:54:51.389Z,295
2016-12-03T02:55:51.474Z,294
2016-12-03T02:56:51.573Z,294
2016-12-03T02:57:51.725Z,294
2016-12-03T02:58:51.816Z,294
2016-12-03T02:59:51.933Z,294
2016-12-03T03:00:52.054Z,294
2016-12-03T03:01:52.186Z,294
2016-12-03T03:02:52.239Z,295
2016-12-03T03:03:52.328Z,294
2016-12-03T03:04:52.405Z,294
2016-12-03T03:05:52.523Z,294
2016-12-03T03:06:52.658Z,294
2016-12-03T03:07:52.835Z,294
2016-12-03T03:08:52.883Z,294
2016-12-03T03:09:52.961Z,294
2016-12-03T03:10:53.091Z,294
2016-12-03T03:11:53.200Z,295
2016-12-03T03:12:53.290Z,294
2016-12-03T03:13:53.361Z,294
2016-12-03T03:14:53.425Z,294
2016-12-03T03:15:53.569Z,294
2016-12-03T03:16:53.726Z,294
2016-12-03T03:17:53.803Z,293
2016-12-03T03:18:53.975Z,294
2016-12-03T03:19:54.168Z,295
2016-12-03T03:20:54.325Z,294
2016-12-03T03:21:54.456Z,294
2016-12-03T03:22:54.569Z,294
2016-12-03T03:23:54.642Z,294
2016-12-03T03:24:54.812Z,294
2016-12-03T03:25:56.027Z,294
2016-12-03T03:26:55.011Z,294
2016-12-03T03:27:55.085Z,294
2016-12-03T03:28:55.152Z,294
2016-12-03T03:29:55.318Z,294
2016-12-03T03:30:55.421Z,294
2016-12-03T03:31:55.512Z,294
2016-12-03T03:32:55.614Z,294
2016-12-03T03:33:55.779Z,294
2016-12-03T03:34:55.900Z,294
2016-12-03T03:35:56.134Z,294
2016-12-03T03:36:56.222Z,294
2016-12-03T03:37:56.299Z,294
2016-12-03T03:38:56.429Z,294
2016-12-03T03:39:56.600Z,294
2016-12-03T03:40:56.697Z,294
2016-12-03T03:41:56.786Z,294
2016-12-03T03:42:56.866Z,294
2016-12-03T03:43:56.975Z,294
2016-12-03T03:44:57.075Z,294
2016-12-03T03:45:57.170Z,294
2016-12-03T03:46:57.265Z,294
2016-12-03T03:47:57.408Z,294
2016-12-03T03:48:57.487Z,295
2016-12-03T03:49:57.561Z,294
2016-12-03T03:50:57.721Z,295
2016-12-03T03:51:57.842Z,294
2016-12-03T03:52:57.932Z,294
2016-12-03T03:53:58.039Z,294
2016-12-03T03:54:58.166Z,294
2016-12-03T03:55:58.285Z,294
2016-12-03T03:56:58.397Z,294
2016-12-03T03:57:58.486Z,294
2016-12-03T03:58:58.637Z,294
2016-12-03T03:59:58.830Z,294
2016-12-03T04:00:58.926Z,294
2016-12-03T04:01:59.080Z,294
2016-12-03T04:02:59.221Z,294
2016-12-03T04:03:59.336Z,294
2016-12-03T04:04:59.643Z,294
2016-12-03T04:05:59.781Z,294
2016-12-03T04:06:59.894Z,294
2016-12-03T04:08:00.078Z,294
2016-12-03T04:09:00.164Z,295
2016-12-03T04:10:00.310Z,295
2016-12-03T04:11:00.428Z,294
2016-12-03T04:12:00.532Z,294
2016-12-03T04:13:00.706Z,294
2016-12-03T04:14:00.838Z,294
2016-12-03T04:15:00.944Z,294
2016-12-03T04:16:01.073Z,294
2016-12-03T04:17:01.155Z,294
2016-12-03T04:18:01.287Z,294
2016-12-03T04:19:01.427Z,294
2016-12-03T04:20:01.583Z,294
2016-12-03T04:21:01.689Z,294
2016-12-03T04:22:01.784Z,294
2016-12-03T04:23:01.905Z,294
2016-12-03T04:24:02.127Z,294
2016-12-03T04:25:02.256Z,294
2016-12-03T04:26:02.379Z,294
2016-12-03T04:27:02.510Z,294
2016-12-03T04:28:02.661Z,294
2016-12-03T04:29:02.831Z,293
2016-12-03T04:30:02.946Z,294
2016-12-03T04:31:03.126Z,294
2016-12-03T04:32:03.215Z,294
2016-12-03T04:33:03.490Z,294
2016-12-03T04:34:03.638Z,294
2016-12-03T04:35:03.783Z,294
2016-12-03T04:36:04.128Z,294
2016-12-03T04:37:03.920Z,294
2016-12-03T04:38:04.047Z,294
2016-12-03T04:39:04.193Z,294
2016-12-03T04:40:04.305Z,294
2016-12-03T04:41:04.401Z,294
2016-12-03T04:42:04.548Z,294
2016-12-03T04:43:04.704Z,294
2016-12-03T04:44:04.815Z,294
2016-12-03T04:45:04.911Z,294
2016-12-03T04:46:05.051Z,294
2016-12-03T04:47:05.145Z,294
2016-12-03T04:48:05.252Z,294
2016-12-03T04:49:05.482Z,294
2016-12-03T04:50:05.580Z,294
2016-12-03T04:51:05.727Z,294
2016-12-03T04:52:05.894Z,294
2016-12-03T04:53:06.022Z,294
2016-12-03T04:54:06.154Z,294
2016-12-03T04:55:06.306Z,294
2016-12-03T04:56:06.459Z,294
2016-12-03T04:57:06.576Z,294
2016-12-03T04:58:06.640Z,294
2016-12-03T04:59:06.830Z,294
2016-12-03T05:00:06.886Z,294
2016-12-03T05:01:07.041Z,294
2016-12-03T05:02:07.113Z,294
2016-12-03T05:03:07.236Z,294
2016-12-03T05:04:07.362Z,294
2016-12-03T05:05:07.489Z,294
2016-12-03T05:06:07.586Z,294
2016-12-03T05:07:07.712Z,294
2016-12-03T05:08:07.817Z,294
2016-12-03T05:09:07.975Z,294
2016-12-03T05:10:08.051Z,294
2016-12-03T05:11:08.180Z,294
2016-12-03T05:12:08.281Z,294
2016-12-03T05:13:08.404Z,294
2016-12-03T05:14:08.590Z,293
2016-12-03T05:15:08.728Z,294
2016-12-03T05:16:08.878Z,295
2016-12-03T05:17:09.041Z,294
2016-12-03T05:18:09.142Z,294
2016-12-03T05:19:09.325Z,294
2016-12-03T05:20:09.472Z,295
2016-12-03T05:21:09.561Z,294
2016-12-03T05:22:09.729Z,293
2016-12-03T05:23:09.879Z,294
2016-12-03T05:24:10.043Z,294
2016-12-03T05:25:10.134Z,294
2016-12-03T05:26:10.230Z,294
2016-12-03T05:27:10.353Z,294
2016-12-03T05:28:10.500Z,294
2016-12-03T05:29:10.676Z,294
2016-12-03T05:30:10.728Z,294
2016-12-03T05:31:10.872Z,294
2016-12-03T05:32:10.983Z,294
2016-12-03T05:33:11.138Z,294
2016-12-03T05:34:11.303Z,294
2016-12-03T05:35:11.401Z,294
2016-12-03T05:36:11.538Z,294
2016-12-03T05:37:11.638Z,294
2016-12-03T05:38:11.761Z,294
2016-12-03T05:39:11.906Z,294
2016-12-03T05:40:12.049Z,293
2016-12-03T05:41:12.152Z,294
2016-12-03T05:42:12.246Z,294
2016-12-03T05:43:12.363Z,294
2016-12-03T05:44:12.562Z,293
2016-12-03T05:45:12.661Z,294
2016-12-03T05:46:12.766Z,294
2016-12-03T05:47:12.848Z,293
2016-12-03T05:48:13.013Z,294
2016-12-03T05:49:13.152Z,294
2016-12-03T05:50:13.294Z,294
2016-12-03T05:51:13.453Z,294
2016-12-03T05:52:13.534Z,294
2016-12-03T05:53:13.648Z,293
2016-12-03T05:54:13.840Z,294
2016-12-03T05:55:13.932Z,294
2016-12-03T05:56:14.054Z,294
2016-12-03T05:57:14.204Z,295
2016-12-03T05:58:14.321Z,294
2016-12-03T05:59:14.460Z,294
2016-12-03T06:00:14.571Z,294
2016-12-03T06:01:14.807Z,294
2016-12-03T06:02:14.926Z,294
2016-12-03T06:03:15.027Z,294
2016-12-03T06:04:15.169Z,294
2016-12-03T06:05:15.251Z,294
2016-12-03T06:06:15.376Z,294
2016-12-03T06:07:15.556Z,294
2016-12-03T06:08:15.795Z,294
2016-12-03T06:09:15.957Z,294
2016-12-03T06:10:16.041Z,294
2016-12-03T06:11:16.211Z,294
2016-12-03T06:12:16.395Z,293
2016-12-03T06:13:16.450Z,294
2016-12-03T06:14:16.556Z,293
2016-12-03T06:15:16.727Z,294
2016-12-03T06:16:16.914Z,294
2016-12-03T06:17:16.981Z,294
2016-12-03T06:18:17.094Z,294
2016-12-03T06:19:17.183Z,294
2016-12-03T06:20:17.311Z,294
2016-12-03T06:21:17.397Z,293
2016-12-03T06:22:17.562Z,294
2016-12-03T06:23:17.665Z,294
2016-12-03T06:24:17.715Z,294
2016-12-03T06:25:17.791Z,294
2016-12-03T06:26:17.892Z,293
2016-12-03T06:27:18.057Z,293
2016-12-03T06:28:18.120Z,294
2016-12-03T06:29:18.210Z,294
2016-12-03T06:30:18.267Z,295
2016-12-03T06:31:18.362Z,294
2016-12-03T06:32:18.467Z,294
2016-12-03T06:33:18.543Z,294
2016-12-03T06:34:18.692Z,294
2016-12-03T06:35:18.791Z,294
2016-12-03T06:36:18.907Z,294
2016-12-03T06:37:19.003Z,293
2016-12-03T06:38:19.094Z,294
2016-12-03T06:39:19.215Z,294
2016-12-03T06:40:19.297Z,294
2016-12-03T06:41:19.389Z,294
2016-12-03T06:42:19.479Z,294
2016-12-03T06:43:19.562Z,293
2016-12-03T06:44:19.754Z,293
2016-12-03T06:45:19.822Z,293
2016-12-03T06:46:19.924Z,293
2016-12-03T06:47:20.037Z,294
2016-12-03T06:48:20.176Z,294
2016-12-03T06:49:20.245Z,294
2016-12-03T06:50:20.389Z,294
2016-12-03T06:51:20.530Z,294
2016-12-03T06:52:20.649Z,293
2016-12-03T06:53:20.744Z,294
2016-12-03T06:54:20.887Z,293
2016-12-03T06:55:21.024Z,294
2016-12-03T06:56:21.188Z,293
2016-12-03T06:57:21.288Z,294
2016-12-03T06:58:21.380Z,293
2016-12-03T06:59:21.483Z,294
2016-12-03T07:00:21.688Z,294
2016-12-03T07:01:21.873Z,294
2016-12-03T07:02:22.032Z,294
2016-12-03T07:03:22.187Z,294
2016-12-03T07:04:22.284Z,294
2016-12-03T07:05:22.393Z,294
2016-12-03T07:06:22.516Z,294
2016-12-03T07:07:22.696Z,294
2016-12-03T07:08:22.766Z,294
2016-12-03T07:09:22.937Z,294
2016-12-03T07:10:23.033Z,294
2016-12-03T07:11:23.117Z,294
2016-12-03T07:12:23.324Z,294
2016-12-03T07:13:23.433Z,294
2016-12-03T07:14:23.708Z,294
2016-12-03T07:15:23.952Z,294
2016-12-03T07:16:24.117Z,294
2016-12-03T07:17:24.221Z,294
2016-12-03T07:18:24.385Z,294
2016-12-03T07:19:24.484Z,293
2016-12-03T07:20:24.663Z,294
2016-12-03T07:21:24.784Z,294
2016-12-03T07:22:24.963Z,294
2016-12-03T07:23:25.062Z,294
2016-12-03T07:24:25.203Z,294
2016-12-03T07:25:25.299Z,294
2016-12-03T07:26:25.407Z,294
2016-12-03T07:27:25.485Z,294
2016-12-03T07:28:25.622Z,293
2016-12-03T07:29:25.735Z,294
2016-12-03T07:30:25.879Z,294
2016-12-03T07:31:26.078Z,294
2016-12-03T07:32:26.292Z,294
2016-12-03T07:33:26.373Z,294
2016-12-03T07:34:26.492Z,294
2016-12-03T07:35:26.743Z,294
2016-12-03T07:36:26.903Z,294
2016-12-03T07:37:27.047Z,294
2016-12-03T07:38:27.179Z,294
2016-12-03T07:39:27.324Z,294
2016-12-03T07:40:27.449Z,294
2016-12-03T07:41:27.521Z,294
2016-12-03T07:42:27.680Z,294
2016-12-03T07:43:27.781Z,294
2016-12-03T07:44:27.941Z,294
2016-12-03T07:45:28.066Z,294
2016-12-03T07:46:28.159Z,294
2016-12-03T07:47:28.284Z,294
2016-12-03T07:48:28.440Z,294
2016-12-03T07:49:28.626Z,294
2016-12-03T07:50:28.786Z,294
2016-12-03T07:51:30.514Z,294
2016-12-03T07:52:30.604Z,294
2016-12-03T07:53:32.462Z,294
2016-12-03T07:54:33.782Z,294
2016-12-03T07:55:34.544Z,294
2016-12-03T07:56:34.711Z,294
2016-12-03T07:57:34.987Z,294
2016-12-03T07:58:35.619Z,294
2016-12-03T07:59:36.664Z,294
2016-12-03T08:00:37.864Z,294
2016-12-03T08:01:37.641Z,294
2016-12-03T08:02:38.741Z,294
2016-12-03T08:03:40.891Z,293
2016-12-03T08:04:41.314Z,294
2016-12-03T08:05:42.291Z,294
2016-12-03T08:06:43.329Z,294
2016-12-03T08:07:44.790Z,294
2016-12-03T08:08:45.719Z,294
2016-12-03T08:09:47.100Z,294
2016-12-03T08:10:48.180Z,294
2016-12-03T08:11:49.039Z,295
2016-12-03T08:12:51.142Z,294
2016-12-03T08:13:52.805Z,294
2016-12-03T08:14:55.424Z,294
2016-12-03T08:15:56.365Z,295
2016-12-03T08:16:58.279Z,295
2016-12-03T08:18:01.556Z,295
2016-12-03T08:19:03.491Z,294
2016-12-03T08:20:05.789Z,295
2016-12-03T08:21:09.324Z,295
2016-12-03T08:22:11.335Z,295
2016-12-03T08:23:12.576Z,294
2016-12-03T08:24:13.805Z,295
2016-12-03T08:25:15.472Z,294
2016-12-03T08:26:17.556Z,295
2016-12-03T08:27:19.100Z,295
2016-12-03T08:28:20.586Z,295
2016-12-03T08:29:23.452Z,296
2016-12-03T08:30:24.922Z,296
2016-12-03T08:31:26.460Z,296
2016-12-03T08:32:27.717Z,295
2016-12-03T08:33:30.143Z,295
2016-12-03T08:34:33.464Z,297
2016-12-03T08:35:36.232Z,296
2016-12-03T08:36:38.941Z,297
2016-12-03T08:37:42.557Z,298
2016-12-03T08:38:43.035Z,301
2016-12-03T08:39:44.580Z,308
2016-12-03T08:40:47.389Z,317
2016-12-03T08:41:48.915Z,329
2016-12-03T08:42:51.246Z,336
2016-12-03T08:43:52.314Z,337
2016-12-03T08:44:56.037Z,343
2016-12-03T08:45:57.230Z,347
2016-12-03T08:46:59.963Z,348
2016-12-03T08:48:01.676Z,350
2016-12-03T08:49:05.651Z,357
2016-12-03T08:50:07.913Z,372
2016-12-03T08:51:11.531Z,384
2016-12-03T08:52:13.009Z,394
2016-12-03T08:53:15.603Z,404
2016-12-03T08:54:16.015Z,415
2016-12-03T08:55:18.871Z,421
2016-12-03T08:56:21.537Z,433
2016-12-03T08:57:25.376Z,435
2016-12-03T08:58:26.831Z,443
2016-12-03T08:59:28.172Z,440
2016-12-03T09:00:30.261Z,432
2016-12-03T09:01:34.494Z,426
2016-12-03T09:02:37.807Z,423
2016-12-03T09:03:39.468Z,416
2016-12-03T09:04:42.507Z,413
2016-12-03T09:05:44.697Z,418
2016-12-03T09:06:45.987Z,410
2016-12-03T09:07:49.191Z,408
2016-12-03T09:08:50.641Z,404
2016-12-03T09:09:52.360Z,402
2016-12-03T09:10:56.048Z,401
2016-12-03T09:11:58.346Z,401
2016-12-03T09:13:01.583Z,398
2016-12-03T09:14:04.001Z,395
2016-12-03T09:15:07.207Z,393
2016-12-03T09:16:09.098Z,391
2016-12-03T09:17:10.776Z,390
2016-12-03T09:18:11.324Z,392
2016-12-03T09:19:14.853Z,396
2016-12-03T09:20:15.746Z,399
2016-12-03T09:21:17.780Z,400
2016-12-03T09:22:20.341Z,403
2016-12-03T09:23:21.536Z,400
2016-12-03T09:24:24.850Z,397
2016-12-03T09:25:26.563Z,396
2016-12-03T09:26:28.767Z,395
2016-12-03T09:27:29.972Z,392
2016-12-03T09:28:31.169Z,394
2016-12-03T09:29:32.948Z,393
2016-12-03T09:30:34.830Z,391
2016-12-03T09:31:34.878Z,387
2016-12-03T09:32:35.217Z,385
2016-12-03T09:33:35.442Z,385
2016-12-03T09:34:35.725Z,384
2016-12-03T09:35:36.455Z,382
2016-12-03T09:36:36.861Z,380
2016-12-03T09:37:37.069Z,377
2016-12-03T09:38:37.232Z,378
2016-12-03T09:39:37.355Z,377
2016-12-03T09:40:37.583Z,376
2016-12-03T09:41:38.243Z,377
2016-12-03T09:42:38.629Z,377
2016-12-03T09:43:38.930Z,375
2016-12-03T09:44:39.091Z,376
2016-12-03T09:45:39.526Z,376
2016-12-03T09:46:39.715Z,374
2016-12-03T09:47:40.133Z,373
2016-12-03T09:48:40.616Z,373
2016-12-03T09:49:40.772Z,373
2016-12-03T09:50:41.057Z,372
2016-12-03T09:51:41.312Z,371
2016-12-03T09:52:41.487Z,372
2016-12-03T09:53:41.681Z,376
2016-12-03T09:54:42.175Z,372
2016-12-03T09:55:42.709Z,369
2016-12-03T09:56:42.750Z,368
2016-12-03T09:57:43.049Z,366
2016-12-03T09:58:43.391Z,367
2016-12-03T09:59:43.633Z,369
2016-12-03T10:00:44.287Z,368
2016-12-03T10:01:44.447Z,370
2016-12-03T10:02:44.824Z,367
2016-12-03T10:03:44.916Z,366
2016-12-03T10:04:45.089Z,364
2016-12-03T10:05:45.421Z,365
2016-12-03T10:06:45.633Z,365
2016-12-03T10:07:45.912Z,365
2016-12-03T10:08:46.123Z,361
2016-12-03T10:09:46.306Z,358
2016-12-03T10:10:46.459Z,357
2016-12-03T10:11:46.843Z,359
2016-12-03T10:12:47.263Z,360
2016-12-03T10:13:47.369Z,361
2016-12-03T10:14:47.568Z,360
2016-12-03T10:15:48.038Z,360
2016-12-03T10:16:48.232Z,358
2016-12-03T10:17:48.637Z,352
2016-12-03T10:18:48.839Z,350
2016-12-03T10:19:49.076Z,351
2016-12-03T10:20:49.505Z,351
2016-12-03T10:21:49.796Z,350
2016-12-03T10:22:50.217Z,350
2016-12-03T10:23:50.416Z,349
2016-12-03T10:24:50.662Z,349
2016-12-03T10:25:50.974Z,347
2016-12-03T10:26:51.149Z,345
2016-12-03T10:27:51.556Z,346
2016-12-03T10:28:51.753Z,346
2016-12-03T10:29:52.031Z,345
2016-12-03T10:30:52.504Z,347
2016-12-03T10:31:52.846Z,345
2016-12-03T10:32:53.009Z,345
2016-12-03T10:33:53.379Z,340
2016-12-03T10:34:53.438Z,342
2016-12-03T10:35:53.797Z,342
2016-12-03T10:36:54.164Z,338
2016-12-03T10:37:54.392Z,336
2016-12-03T10:38:54.543Z,334
2016-12-03T10:39:54.829Z,333
2016-12-03T10:40:54.980Z,332
2016-12-03T10:41:55.318Z,331
2016-12-03T10:42:55.464Z,330
2016-12-03T10:43:55.723Z,330
2016-12-03T10:44:56.228Z,328
2016-12-03T10:45:56.522Z,328
2016-12-03T10:46:56.851Z,328
2016-12-03T10:47:57.137Z,330
2016-12-03T10:48:57.379Z,330
2016-12-03T10:49:57.559Z,324
2016-12-03T10:50:57.773Z,322
2016-12-03T10:51:58.040Z,319
2016-12-03T10:52:58.424Z,319
2016-12-03T10:53:58.649Z,318
2016-12-03T10:54:58.870Z,316
2016-12-03T10:55:59.043Z,315
2016-12-03T10:56:59.386Z,315
2016-12-03T10:57:59.543Z,314
2016-12-03T10:58:59.714Z,313
2016-12-03T10:59:59.848Z,312
2016-12-03T11:01:00.446Z,310
2016-12-03T11:02:00.932Z,310
2016-12-03T11:03:01.312Z,310
2016-12-03T11:04:01.516Z,309
2016-12-03T11:05:01.656Z,309
2016-12-03T11:06:01.800Z,309
2016-12-03T11:07:01.952Z,308
2016-12-03T11:08:02.089Z,307
2016-12-03T11:09:02.249Z,307
2016-12-03T11:10:02.447Z,307
2016-12-03T11:11:02.656Z,306
2016-12-03T11:12:02.851Z,305
2016-12-03T11:13:02.997Z,303
2016-12-03T11:14:03.221Z,303
2016-12-03T11:15:03.425Z,303
2016-12-03T11:16:03.539Z,301
2016-12-03T11:17:03.739Z,300
2016-12-03T11:18:03.876Z,300
2016-12-03T11:19:03.972Z,299
2016-12-03T11:20:04.096Z,299
2016-12-03T11:21:04.259Z,298
2016-12-03T11:22:04.503Z,297
2016-12-03T11:23:04.721Z,297
2016-12-03T11:24:04.956Z,296
2016-12-03T11:25:05.103Z,296
2016-12-03T11:26:05.383Z,295
2016-12-03T11:27:05.503Z,295
2016-12-03T11:28:05.603Z,294
2016-12-03T11:29:05.807Z,294
2016-12-03T11:30:05.904Z,294
2016-12-03T11:31:06.068Z,294
2016-12-03T11:32:06.316Z,293
2016-12-03T11:33:06.501Z,294
2016-12-03T11:34:06.639Z,294
2016-12-03T11:35:06.823Z,294
2016-12-03T11:36:06.984Z,294
2016-12-03T11:37:07.159Z,293
2016-12-03T11:38:07.319Z,294
2016-12-03T11:39:07.550Z,294
2016-12-03T11:40:07.816Z,294
2016-12-03T11:41:07.956Z,293
2016-12-03T11:42:08.152Z,293
2016-12-03T11:43:08.333Z,294
2016-12-03T11:44:08.548Z,294
2016-12-03T11:45:08.654Z,294
2016-12-03T11:46:08.805Z,294
2016-12-03T11:47:08.907Z,294
2016-12-03T11:48:09.048Z,294
2016-12-03T11:49:09.358Z,293
2016-12-03T11:50:09.641Z,294
2016-12-03T11:51:09.713Z,293
2016-12-03T11:52:10.622Z,294
2016-12-03T11:53:10.078Z,294
2016-12-03T11:54:10.283Z,294
2016-12-03T11:55:10.451Z,294
2016-12-03T11:56:10.679Z,293
2016-12-03T11:57:10.842Z,294
2016-12-03T11:58:11.001Z,294
2016-12-03T11:59:11.241Z,294
2016-12-03T12:00:11.408Z,294
2016-12-03T12:01:11.676Z,294
2016-12-03T12:02:11.767Z,294
2016-12-03T12:03:11.941Z,294
2016-12-03T12:04:12.221Z,294
2016-12-03T12:05:12.491Z,294
2016-12-03T12:06:12.690Z,294
2016-12-03T12:07:12.870Z,293
2016-12-03T12:08:12.981Z,293
2016-12-03T12:09:13.211Z,294
2016-12-03T12:10:13.458Z,294
2016-12-03T12:11:13.541Z,294
2016-12-03T12:12:13.741Z,294
2016-12-03T12:13:13.866Z,293
2016-12-03T12:14:13.956Z,293
2016-12-03T12:15:14.155Z,294
2016-12-03T12:16:14.402Z,293
2016-12-03T12:17:14.571Z,294
2016-12-03T12:18:14.880Z,294
2016-12-03T12:19:15.026Z,293
2016-12-03T12:20:15.140Z,293
2016-12-03T12:21:15.357Z,293
2016-12-03T12:22:15.521Z,293
2016-12-03T12:23:15.603Z,294
2016-12-03T12:24:15.833Z,294
2016-12-03T12:25:15.971Z,293
2016-12-03T12:26:16.204Z,294
2016-12-03T12:27:16.291Z,294
2016-12-03T12:28:16.454Z,293
2016-12-03T12:29:16.768Z,293
2016-12-03T12:30:16.996Z,293
2016-12-03T12:31:17.223Z,294
2016-12-03T12:32:17.458Z,294
2016-12-03T12:33:17.720Z,294
2016-12-03T12:34:17.786Z,293
2016-12-03T12:35:17.889Z,294
2016-12-03T12:36:18.198Z,293
2016-12-03T12:37:18.566Z,293
2016-12-03T12:38:18.793Z,294
2016-12-03T12:39:18.816Z,294
2016-12-03T12:40:19.003Z,294
2016-12-03T12:41:19.285Z,293
2016-12-03T12:42:19.454Z,294
2016-12-03T12:43:19.593Z,293
2016-12-03T12:44:19.813Z,294
2016-12-03T12:45:19.949Z,294
2016-12-03T12:46:20.142Z,294
2016-12-03T12:47:20.327Z,293
2016-12-03T12:48:20.580Z,294
2016-12-03T12:49:20.862Z,293
2016-12-03T12:50:21.002Z,293
2016-12-03T12:51:21.171Z,293
2016-12-03T12:52:21.356Z,294
2016-12-03T12:53:21.444Z,293
2016-12-03T12:54:21.593Z,294
2016-12-03T12:55:21.847Z,294
2016-12-03T12:56:22.037Z,293
2016-12-03T12:57:22.233Z,293
2016-12-03T12:58:22.541Z,293
2016-12-03T12:59:22.680Z,294
2016-12-03T13:00:22.983Z,293
2016-12-03T13:01:23.110Z,293
2016-12-03T13:02:23.361Z,294
2016-12-03T13:03:23.584Z,293
2016-12-03T13:04:23.770Z,294
2016-12-03T13:05:24.065Z,294
2016-12-03T13:06:25.180Z,293
2016-12-03T13:07:24.914Z,294
2016-12-03T13:08:25.063Z,294
2016-12-03T13:09:25.274Z,293
2016-12-03T13:10:25.405Z,294
2016-12-03T13:11:25.590Z,294
2016-12-03T13:12:25.717Z,293
2016-12-03T13:13:25.924Z,293
2016-12-03T13:14:26.074Z,294
2016-12-03T13:15:26.387Z,294
2016-12-03T13:16:26.526Z,293
2016-12-03T13:17:26.673Z,293
2016-12-03T13:18:26.840Z,293
2016-12-03T13:19:26.969Z,294
2016-12-03T13:20:27.204Z,294
2016-12-03T13:21:27.342Z,293
2016-12-03T13:22:27.383Z,294
2016-12-03T13:23:27.603Z,293
2016-12-03T13:24:27.817Z,293
2016-12-03T13:25:28.056Z,293
2016-12-03T13:26:28.247Z,294
2016-12-03T13:27:28.421Z,294
2016-12-03T13:28:28.621Z,294
2016-12-03T13:29:28.822Z,293
2016-12-03T13:30:28.994Z,294
2016-12-03T13:31:29.179Z,293
2016-12-03T13:32:30.642Z,294
2016-12-03T13:33:29.547Z,293
2016-12-03T13:34:29.746Z,294
2016-12-03T13:35:29.946Z,293
2016-12-03T13:36:30.061Z,294
2016-12-03T13:37:30.189Z,293
2016-12-03T13:38:31.167Z,293
2016-12-03T13:39:30.603Z,293
2016-12-03T13:40:30.799Z,293
2016-12-03T13:41:31.010Z,294
2016-12-03T13:42:31.217Z,293
2016-12-03T13:43:31.468Z,293
2016-12-03T13:44:31.578Z,293
2016-12-03T13:45:31.748Z,293
2016-12-03T13:46:31.829Z,294
2016-12-03T13:47:31.983Z,293
2016-12-03T13:48:32.195Z,293
2016-12-03T13:49:32.433Z,294
2016-12-03T13:50:32.746Z,293
2016-12-03T13:51:33.068Z,293